createdAt,value
2022-12-05T00:01:23.534Z,42.35
2022-12-05T00:03:54.002Z,40.95
2022-12-05T00:06:22.957Z,45.72
2022-12-05T00:08:51.785Z,45.50
2022-12-05T00:11:27.808Z,48.10
2022-12-05T00:13:56.963Z,45.63
2022-12-05T00:16:26.594Z,43.00
2022-12-05T00:18:54.174Z,44.75
2022-12-05T00:21:26.547Z,42.47
2022-12-05T00:23:55.636Z,42.58
2022-12-05T00:26:23.197Z,46.33
2022-12-05T00:28:52.608Z,42.35
2022-12-05T00:31:21.817Z,44.13
2022-12-05T00:33:49.699Z,51.00
2022-12-05T00:36:18.695Z,44.58
2022-12-05T00:38:46.214Z,43.42
2022-12-05T00:41:19.984Z,46.90
2022-12-05T00:43:47.992Z,49.38
2022-12-05T00:46:18.472Z,44.22
2022-12-05T00:48:46.253Z,43.92
2022-12-05T00:51:23.168Z,44.05
2022-12-05T00:53:50.781Z,42.95
2022-12-05T00:56:20.330Z,44.58
2022-12-05T00:58:48.455Z,43.00
2022-12-05T01:01:21.805Z,44.58
2022-12-05T01:03:49.448Z,45.05
2022-12-05T01:06:17.114Z,44.47
2022-12-05T01:08:44.526Z,43.95
2022-12-05T01:11:15.296Z,46.63
2022-12-05T01:13:43.133Z,44.90
2022-12-05T01:16:21.505Z,46.28
2022-12-05T01:18:49.383Z,45.15
2022-12-05T01:21:17.374Z,44.83
2022-12-05T01:23:44.721Z,45.05
2022-12-05T01:26:14.620Z,46.78
2022-12-05T01:31:31.432Z,45.78
2022-12-05T01:34:00.487Z,45.95
2022-12-05T01:36:28.461Z,44.25
2022-12-05T01:38:56.265Z,46.60
2022-12-05T01:41:26.229Z,48.85
2022-12-05T01:46:39.910Z,51.58
2022-12-05T01:49:11.345Z,48.33
2022-12-05T01:51:41.298Z,45.00
2022-12-05T01:56:36.143Z,48.50
2022-12-05T01:59:05.519Z,44.15
2022-12-05T02:01:32.868Z,47.78
2022-12-05T02:04:00.431Z,54.60
2022-12-05T02:06:28.593Z,50.15
2022-12-05T02:08:56.015Z,48.03
2022-12-05T02:11:25.417Z,50.47
2022-12-05T02:14:10.456Z,51.47
2022-12-05T02:16:46.861Z,51.25
2022-12-05T02:19:27.530Z,51.83
2022-12-05T02:22:01.223Z,54.72
2022-12-05T02:24:28.628Z,52.38
2022-12-05T02:27:38.743Z,55.40
2022-12-05T02:30:11.540Z,51.97
2022-12-05T02:32:50.516Z,55.15
2022-12-05T02:35:36.296Z,53.38
2022-12-05T02:38:03.549Z,52.13
2022-12-05T02:40:35.459Z,49.30
2022-12-05T02:43:24.215Z,48.13
2022-12-05T02:45:54.167Z,54.83
2022-12-05T02:48:21.510Z,53.05
2022-12-05T02:50:49.317Z,49.38
2022-12-05T02:53:18.036Z,51.75
2022-12-05T02:55:45.767Z,50.30
2022-12-05T02:58:21.968Z,52.22
2022-12-05T03:00:50.507Z,51.13
2022-12-05T03:03:19.576Z,51.95
2022-12-05T03:05:57.436Z,57.83
2022-12-05T03:08:30.066Z,51.72
2022-12-05T03:10:58.853Z,50.20
2022-12-05T03:13:29.445Z,57.03
2022-12-05T03:16:00.652Z,45.40
2022-12-05T03:18:34.226Z,47.03
2022-12-05T03:21:08.925Z,48.30
2022-12-05T03:23:42.267Z,50.92
2022-12-05T03:26:20.637Z,50.60
2022-12-05T03:29:11.882Z,50.35
2022-12-05T03:31:52.626Z,54.45
2022-12-05T03:34:35.052Z,52.42
2022-12-05T03:37:07.125Z,54.72
2022-12-05T03:39:35.847Z,53.85
2022-12-05T03:42:14.005Z,55.65
2022-12-05T03:44:47.156Z,54.55
2022-12-05T03:47:33.209Z,57.78
2022-12-05T03:50:04.511Z,58.00
2022-12-05T03:53:03.696Z,59.45
2022-12-05T03:55:29.937Z,55.53
2022-12-05T03:58:08.902Z,62.37
2022-12-05T04:00:41.354Z,56.00
2022-12-05T04:03:24.542Z,57.60
2022-12-05T04:05:56.915Z,59.30
2022-12-05T04:08:31.506Z,58.90
2022-12-05T04:11:03.687Z,54.45
2022-12-05T04:13:33.966Z,53.47
2022-12-05T04:16:23.559Z,54.70
2022-12-05T04:18:56.742Z,51.53
2022-12-05T04:21:39.121Z,57.60
2022-12-05T04:24:29.095Z,56.72
2022-12-05T04:29:53.247Z,56.15
2022-12-05T04:32:25.012Z,59.40
2022-12-05T04:34:55.926Z,60.83
2022-12-05T04:37:30.969Z,57.30
2022-12-05T04:40:04.551Z,62.78
2022-12-05T04:42:33.770Z,61.83
2022-12-05T04:45:08.345Z,69.45
2022-12-05T04:47:46.208Z,61.45
2022-12-05T04:50:14.546Z,65.07
2022-12-05T04:52:43.531Z,63.10
2022-12-05T04:55:16.223Z,60.00
2022-12-05T04:58:19.945Z,65.45
2022-12-05T05:00:52.995Z,64.60
2022-12-05T05:03:31.192Z,67.72
2022-12-05T05:05:58.793Z,68.53
2022-12-05T05:08:29.029Z,64.22
2022-12-05T05:11:11.766Z,63.08
2022-12-05T05:13:39.239Z,63.63
2022-12-05T05:16:07.137Z,63.95
2022-12-05T05:18:34.661Z,58.08
2022-12-05T05:21:01.957Z,60.38
2022-12-05T05:23:29.183Z,65.00
2022-12-05T05:25:56.631Z,66.07
2022-12-05T05:28:23.892Z,58.70
2022-12-05T05:30:51.264Z,62.85
2022-12-05T05:33:18.695Z,54.10
2022-12-05T05:35:46.010Z,53.63
2022-12-05T05:38:13.239Z,58.97
2022-12-05T05:40:40.633Z,61.95
2022-12-05T05:43:08.348Z,59.88
2022-12-05T05:45:36.938Z,59.65
2022-12-05T05:48:04.529Z,58.45
2022-12-05T05:50:31.752Z,52.15
2022-12-05T05:52:59.442Z,57.45
2022-12-05T05:55:26.767Z,53.25
2022-12-05T05:57:54.154Z,49.15
2022-12-05T06:00:21.721Z,54.50
2022-12-05T06:02:49.118Z,48.88
2022-12-05T06:05:16.479Z,52.50
2022-12-05T06:07:43.838Z,43.88
2022-12-05T06:10:11.317Z,52.75
2022-12-05T06:12:38.607Z,52.35
2022-12-05T06:15:06.601Z,50.63
2022-12-05T06:17:33.856Z,53.35
2022-12-05T06:20:01.220Z,56.08
2022-12-05T06:22:29.816Z,59.67
2022-12-05T06:24:57.220Z,51.60
2022-12-05T06:27:24.577Z,57.97
2022-12-05T06:29:52.957Z,52.58
2022-12-05T06:32:20.320Z,62.47
2022-12-05T06:34:47.610Z,58.85
2022-12-05T06:37:15.119Z,64.55
2022-12-05T06:39:42.478Z,61.50
2022-12-05T06:42:09.814Z,60.85
2022-12-05T06:44:37.151Z,60.25
2022-12-05T06:47:04.461Z,61.15
2022-12-05T06:49:37.616Z,58.50
2022-12-05T06:52:05.375Z,56.97
2022-12-05T06:54:32.861Z,59.83
2022-12-05T06:57:00.085Z,68.25
2022-12-05T06:59:27.352Z,59.47
2022-12-05T07:01:54.721Z,56.97
2022-12-05T07:04:26.324Z,54.22
2022-12-05T07:06:55.061Z,62.15
2022-12-05T07:09:45.136Z,59.13
2022-12-05T07:12:14.068Z,59.40
2022-12-05T07:14:49.860Z,57.53
2022-12-05T07:17:21.453Z,59.55
2022-12-05T07:19:52.198Z,55.90
2022-12-05T07:22:21.451Z,55.97
2022-12-05T07:24:49.040Z,52.38
2022-12-05T07:27:18.474Z,53.33
2022-12-05T07:29:48.081Z,50.38
2022-12-05T07:32:15.394Z,48.38
2022-12-05T07:34:42.720Z,51.65
2022-12-05T07:37:10.028Z,53.53
2022-12-05T07:39:37.339Z,49.22
2022-12-05T07:42:04.611Z,51.92
2022-12-05T07:44:32.035Z,51.92
2022-12-05T07:46:59.455Z,48.33
2022-12-05T07:49:26.825Z,47.42
2022-12-05T07:51:54.157Z,46.20
2022-12-05T07:54:21.410Z,46.13
2022-12-05T07:56:48.624Z,52.22
2022-12-05T07:59:15.955Z,44.22
2022-12-05T08:01:43.323Z,45.83
2022-12-05T08:04:15.061Z,46.35
2022-12-05T08:06:42.937Z,44.85
2022-12-05T08:09:10.688Z,48.45
2022-12-05T08:11:39.466Z,47.78
2022-12-05T08:14:08.295Z,46.55
2022-12-05T08:16:35.679Z,45.45
2022-12-05T08:19:05.833Z,47.17
2022-12-05T08:21:33.643Z,46.63
2022-12-05T08:24:00.953Z,50.22
2022-12-05T08:26:30.775Z,53.10
2022-12-05T08:28:59.224Z,56.72
2022-12-05T08:31:28.261Z,46.85
2022-12-05T08:33:59.305Z,49.85
2022-12-05T08:36:28.765Z,53.72
2022-12-05T08:38:57.699Z,53.93
2022-12-05T08:41:28.675Z,59.08
2022-12-05T08:43:58.419Z,56.00
2022-12-05T08:46:26.025Z,52.50
2022-12-05T08:48:53.415Z,62.33
2022-12-05T08:51:20.772Z,55.25
2022-12-05T08:53:48.028Z,52.10
2022-12-05T08:56:15.345Z,59.00
2022-12-05T08:58:42.641Z,54.97
2022-12-05T09:01:15.089Z,54.22
2022-12-05T09:03:47.606Z,55.88
2022-12-05T09:06:19.211Z,54.58
2022-12-05T09:08:47.338Z,57.80
2022-12-05T09:11:20.180Z,55.25
2022-12-05T09:13:48.126Z,48.55
2022-12-05T09:16:26.642Z,61.22
2022-12-05T09:18:53.945Z,54.88
2022-12-05T09:21:23.705Z,55.42
2022-12-05T09:23:51.506Z,58.35
2022-12-05T09:26:22.275Z,56.08
2022-12-05T09:28:49.593Z,54.17
2022-12-05T09:31:19.765Z,55.30
2022-12-05T09:33:47.581Z,59.17
2022-12-05T09:36:21.502Z,56.83
2022-12-05T09:38:49.546Z,55.08
2022-12-05T09:41:57.051Z,53.55
2022-12-05T09:44:43.446Z,53.22
2022-12-05T09:47:15.719Z,52.45
2022-12-05T09:49:50.031Z,56.17
2022-12-05T09:52:27.604Z,50.50
2022-12-05T09:54:55.749Z,56.03
2022-12-05T09:57:36.069Z,55.47
2022-12-05T10:00:07.343Z,56.10
2022-12-05T10:02:46.137Z,53.55
2022-12-05T10:05:24.974Z,49.33
2022-12-05T10:08:16.951Z,52.28
2022-12-05T10:11:29.535Z,49.05
2022-12-05T10:14:27.070Z,54.15
2022-12-05T10:17:21.346Z,55.00
2022-12-05T10:19:49.923Z,56.78
2022-12-05T10:22:22.944Z,63.42
2022-12-05T10:24:54.283Z,59.22
2022-12-05T10:27:39.511Z,58.42
2022-12-05T10:30:17.975Z,58.53
2022-12-05T10:32:58.466Z,57.67
2022-12-05T10:35:37.154Z,55.55
2022-12-05T10:38:07.336Z,52.97
2022-12-05T10:40:39.679Z,54.65
2022-12-05T10:43:08.854Z,54.25
2022-12-05T10:45:43.677Z,59.10
2022-12-05T10:48:13.077Z,52.97
2022-12-05T10:50:42.476Z,51.97
2022-12-05T10:53:16.501Z,55.75
2022-12-05T10:56:28.350Z,53.63
2022-12-05T10:58:39.859Z,54.42
2022-12-05T11:01:09.437Z,53.28
2022-12-05T11:03:41.342Z,53.80
2022-12-05T11:06:24.008Z,50.97
2022-12-05T11:09:05.641Z,52.03
2022-12-05T11:11:33.890Z,56.70
2022-12-05T11:14:02.887Z,53.25
2022-12-05T11:16:40.033Z,61.93
2022-12-05T11:19:22.822Z,53.03
2022-12-05T11:21:50.496Z,51.72
2022-12-05T11:24:47.569Z,54.42
2022-12-05T11:27:18.202Z,50.88
2022-12-05T11:29:55.960Z,55.38
2022-12-05T11:32:25.958Z,55.50
2022-12-05T11:35:04.530Z,53.20
2022-12-05T11:37:46.015Z,57.25
2022-12-05T11:40:30.879Z,61.20
2022-12-05T11:43:15.197Z,52.13
2022-12-05T11:45:51.554Z,50.88
2022-12-05T11:48:22.305Z,58.75
2022-12-05T11:50:59.064Z,61.03
2022-12-05T11:53:51.423Z,53.67
2022-12-05T11:57:12.630Z,51.42
2022-12-05T11:59:39.909Z,52.67
2022-12-05T12:02:35.353Z,54.85
2022-12-05T12:05:14.585Z,60.78
2022-12-05T12:07:57.120Z,55.10
2022-12-05T12:10:48.676Z,59.05
2022-12-05T12:13:57.626Z,58.58
2022-12-05T12:16:37.028Z,63.60
2022-12-05T12:19:10.878Z,62.63
2022-12-05T12:21:54.556Z,60.80
2022-12-05T12:24:39.815Z,154.00
2022-12-05T12:27:32.079Z,64.47
2022-12-05T12:30:12.341Z,58.92
2022-12-05T12:35:37.063Z,61.05
2022-12-05T12:38:17.640Z,62.45
2022-12-05T12:40:50.872Z,58.03
2022-12-05T12:43:52.715Z,60.72
2022-12-05T12:46:20.243Z,60.45
2022-12-05T12:49:03.950Z,64.03
2022-12-05T12:51:33.495Z,61.92
2022-12-05T12:54:25.280Z,65.07
2022-12-05T12:57:39.831Z,65.25
2022-12-05T13:00:29.061Z,58.38
2022-12-05T13:03:02.050Z,61.13
2022-12-05T13:05:41.739Z,56.60
2022-12-05T13:08:35.408Z,58.97
2022-12-05T13:11:06.035Z,57.67
2022-12-05T13:13:37.219Z,56.05
2022-12-05T13:16:08.002Z,59.28
2022-12-05T13:18:35.750Z,59.40
2022-12-05T13:21:07.593Z,61.55
2022-12-05T13:23:43.760Z,64.47
2022-12-05T13:26:12.202Z,65.55
2022-12-05T13:28:47.215Z,63.60
2022-12-05T13:31:39.628Z,69.28
2022-12-05T13:34:27.462Z,59.58
2022-12-05T13:37:15.661Z,58.13
2022-12-05T13:40:09.737Z,59.95
2022-12-05T13:42:37.954Z,59.38
2022-12-05T13:45:05.177Z,61.22
2022-12-05T13:47:35.103Z,58.80
2022-12-05T13:50:23.642Z,61.03
2022-12-05T13:52:56.562Z,62.20
2022-12-05T13:55:36.776Z,60.08
2022-12-05T13:58:16.526Z,62.65
2022-12-05T14:00:45.363Z,66.47
2022-12-05T14:03:35.573Z,59.83
2022-12-05T14:06:03.037Z,61.88
2022-12-05T14:08:30.227Z,57.80
2022-12-05T14:10:57.429Z,60.42
2022-12-05T14:13:25.660Z,58.92
2022-12-05T14:15:54.688Z,52.90
2022-12-05T14:18:31.188Z,59.42
2022-12-05T14:21:11.530Z,55.42
2022-12-05T14:23:57.580Z,60.53
2022-12-05T14:26:48.963Z,58.67
2022-12-05T14:29:36.850Z,56.05
2022-12-05T14:32:19.167Z,52.78
2022-12-05T14:34:58.149Z,56.70
2022-12-05T14:37:29.233Z,55.50
2022-12-05T14:39:58.706Z,54.33
2022-12-05T14:42:39.328Z,53.67
2022-12-05T14:45:30.091Z,58.22
2022-12-05T14:47:59.654Z,55.70
2022-12-05T14:50:40.872Z,54.92
2022-12-05T14:53:15.753Z,52.25
2022-12-05T14:55:50.734Z,51.85
2022-12-05T14:58:22.284Z,47.20
2022-12-05T15:00:58.081Z,60.63
2022-12-05T15:03:30.864Z,54.67
2022-12-05T15:06:03.675Z,52.10
2022-12-05T15:08:47.391Z,53.75
2022-12-05T15:11:28.455Z,52.05
2022-12-05T15:14:00.509Z,51.30
2022-12-05T15:16:30.001Z,53.22
2022-12-05T15:19:05.274Z,50.50
2022-12-05T15:21:36.544Z,51.38
2022-12-05T15:24:21.924Z,48.47
2022-12-05T15:26:50.504Z,52.80
2022-12-05T15:29:29.156Z,52.15
2022-12-05T15:32:02.402Z,46.70
2022-12-05T15:34:45.967Z,51.05
2022-12-05T15:37:25.904Z,47.95
2022-12-05T15:40:11.122Z,51.28
2022-12-05T15:42:49.945Z,47.53
2022-12-05T15:45:20.014Z,48.55
2022-12-05T15:50:33.814Z,41.22
2022-12-05T15:53:05.654Z,43.90
2022-12-05T15:55:39.360Z,48.72
2022-12-05T15:58:13.445Z,45.55
2022-12-05T16:00:59.643Z,45.38
2022-12-05T16:03:49.249Z,45.65
2022-12-05T16:06:20.372Z,45.60
2022-12-05T16:08:48.103Z,49.05
2022-12-05T16:11:16.140Z,43.17
2022-12-05T16:13:49.912Z,43.78
2022-12-05T16:16:24.341Z,44.42
2022-12-05T16:19:00.202Z,44.72
2022-12-05T16:21:33.103Z,44.63
2022-12-05T16:24:08.483Z,41.45
2022-12-05T16:26:39.709Z,44.25
2022-12-05T16:29:09.569Z,41.78
2022-12-05T16:31:36.933Z,43.25
2022-12-05T16:34:07.616Z,37.40
2022-12-05T16:36:35.244Z,41.50
2022-12-05T16:39:07.211Z,40.25
2022-12-05T16:41:36.322Z,39.70
2022-12-05T16:44:10.761Z,38.97
2022-12-05T16:46:40.339Z,41.40
2022-12-05T16:49:33.043Z,39.08
2022-12-05T16:52:09.675Z,37.35
2022-12-05T16:54:37.063Z,44.25
2022-12-05T16:57:04.630Z,40.30
2022-12-05T16:59:37.248Z,32.95
2022-12-05T17:02:10.216Z,32.63
2022-12-05T17:04:38.709Z,30.85
2022-12-05T17:07:06.002Z,36.92
2022-12-05T17:09:33.363Z,31.90
2022-12-05T17:12:24.043Z,33.03
2022-12-05T17:14:51.300Z,34.45
2022-12-05T17:17:19.051Z,32.95
2022-12-05T17:19:46.437Z,32.60
2022-12-05T17:22:15.480Z,33.72
2022-12-05T17:24:43.106Z,32.25
2022-12-05T17:27:11.954Z,32.00
2022-12-05T17:29:39.266Z,32.33
2022-12-05T17:32:06.557Z,31.10
2022-12-05T17:34:34.874Z,33.92
2022-12-05T17:37:03.056Z,33.58
2022-12-05T17:39:31.386Z,35.67
2022-12-05T17:41:59.025Z,33.80
2022-12-05T17:44:26.483Z,32.55
2022-12-05T17:46:55.069Z,32.78
2022-12-05T17:49:22.942Z,35.85
2022-12-05T17:52:20.405Z,33.22
2022-12-05T17:54:41.009Z,33.97
2022-12-05T17:57:08.417Z,38.15
2022-12-05T17:59:35.656Z,34.92
2022-12-05T18:02:02.946Z,32.97
2022-12-05T18:04:30.207Z,32.72
2022-12-05T18:06:57.506Z,34.70
2022-12-05T18:09:24.716Z,35.03
2022-12-05T18:11:51.967Z,34.58
2022-12-05T18:14:19.208Z,36.58
2022-12-05T18:16:46.745Z,37.00
2022-12-05T18:19:15.125Z,36.55
2022-12-05T18:21:42.494Z,37.85
2022-12-05T18:24:10.413Z,37.17
2022-12-05T18:26:37.661Z,38.65
2022-12-05T18:29:04.950Z,34.25
2022-12-05T18:31:32.505Z,34.05
2022-12-05T18:33:59.863Z,38.75
2022-12-05T18:36:27.282Z,37.92
2022-12-05T18:38:56.084Z,38.38
2022-12-05T18:41:24.149Z,37.90
2022-12-05T18:43:51.564Z,35.55
2022-12-05T18:46:19.521Z,34.88
2022-12-05T18:48:47.960Z,39.25
2022-12-05T18:51:18.937Z,40.63
2022-12-05T18:53:52.526Z,38.50
2022-12-05T18:56:31.514Z,34.50
2022-12-05T18:59:04.790Z,35.90
2022-12-05T19:01:34.399Z,37.30
2022-12-05T19:04:03.982Z,33.78
2022-12-05T19:06:32.931Z,37.72
2022-12-05T19:09:02.585Z,36.15
2022-12-05T19:11:29.930Z,37.90
2022-12-05T19:13:58.635Z,34.60
2022-12-05T19:16:28.117Z,45.05
2022-12-05T19:18:57.025Z,36.00
2022-12-05T19:21:25.112Z,37.85
2022-12-05T19:23:52.771Z,34.47
2022-12-05T19:26:20.278Z,37.20
2022-12-05T19:28:47.689Z,37.70
2022-12-05T19:31:18.203Z,39.22
2022-12-05T19:33:47.910Z,36.15
2022-12-05T19:36:22.940Z,38.45
2022-12-05T19:38:51.483Z,40.55
2022-12-05T19:41:21.998Z,41.38
2022-12-05T19:43:49.394Z,46.05
2022-12-05T19:46:20.673Z,38.95
2022-12-05T19:48:48.304Z,38.75
2022-12-05T19:51:15.764Z,38.22
2022-12-05T19:53:44.058Z,37.85
2022-12-05T19:56:24.950Z,34.17
2022-12-05T19:58:53.961Z,40.20
2022-12-05T20:01:27.839Z,39.35
2022-12-05T20:04:06.727Z,41.97
2022-12-05T20:06:43.163Z,39.38
2022-12-05T20:09:21.453Z,43.60
2022-12-05T20:11:55.044Z,42.15
2022-12-05T20:14:25.297Z,36.92
2022-12-05T20:19:20.676Z,36.40
2022-12-05T20:21:48.190Z,41.22
2022-12-05T20:24:15.465Z,40.05
2022-12-05T20:26:44.109Z,39.83
2022-12-05T20:29:11.353Z,40.38
2022-12-05T20:31:41.050Z,38.90
2022-12-05T20:34:14.778Z,38.40
2022-12-05T20:36:42.552Z,40.17
2022-12-05T20:39:14.703Z,40.45
2022-12-05T20:41:42.303Z,39.15
2022-12-05T20:44:13.487Z,38.05
2022-12-05T20:46:41.655Z,43.63
2022-12-05T20:49:09.250Z,39.10
2022-12-05T20:51:36.564Z,40.45
2022-12-05T20:54:05.374Z,44.20
2022-12-05T20:56:34.265Z,47.70
2022-12-05T20:59:03.987Z,47.38
2022-12-05T21:01:33.241Z,50.08
2022-12-05T21:04:01.428Z,49.50
2022-12-05T21:06:33.837Z,46.17
2022-12-05T21:09:01.974Z,41.08
2022-12-05T21:11:30.322Z,38.97
2022-12-05T21:14:00.255Z,40.05
2022-12-05T21:16:27.744Z,42.30
2022-12-05T21:18:56.156Z,44.65
2022-12-05T21:21:25.931Z,37.83
2022-12-05T21:23:58.242Z,38.25
2022-12-05T21:26:27.096Z,38.95
2022-12-05T21:28:54.871Z,35.63
2022-12-05T21:31:26.279Z,40.97
2022-12-05T21:33:56.890Z,39.20
2022-12-05T21:36:25.167Z,36.10
2022-12-05T21:38:56.203Z,36.42
2022-12-05T21:41:26.895Z,36.05
2022-12-05T21:43:55.686Z,32.90
2022-12-05T21:46:26.891Z,34.40
2022-12-05T21:48:54.872Z,36.75
2022-12-05T21:51:22.951Z,35.53
2022-12-05T21:53:50.562Z,33.45
2022-12-05T21:56:22.641Z,34.97
2022-12-05T21:58:50.409Z,31.83
2022-12-05T22:01:19.944Z,30.83
2022-12-05T22:03:47.587Z,30.17
2022-12-05T22:06:15.421Z,30.35
2022-12-05T22:08:43.306Z,32.17
2022-12-05T22:11:18.656Z,30.25
2022-12-05T22:13:47.046Z,31.50
2022-12-05T22:16:15.203Z,30.20
2022-12-05T22:18:43.374Z,28.30
2022-12-05T22:21:13.472Z,32.85
2022-12-05T22:26:17.676Z,31.17
2022-12-05T22:28:45.497Z,33.30
2022-12-05T22:31:15.172Z,31.08
2022-12-05T22:33:48.185Z,34.47
2022-12-05T22:36:17.339Z,30.13
2022-12-05T22:38:47.279Z,34.13
2022-12-05T22:43:44.709Z,35.47
2022-12-05T22:46:20.586Z,36.35
2022-12-05T22:48:49.089Z,36.17
2022-12-05T22:51:17.880Z,34.92
2022-12-05T22:53:45.496Z,34.33
2022-12-05T22:56:15.611Z,38.58
2022-12-05T23:01:13.500Z,39.95
2022-12-05T23:03:41.606Z,36.65
2022-12-05T23:06:11.908Z,39.30
2022-12-05T23:08:40.721Z,39.83
2022-12-05T23:11:09.101Z,36.25
2022-12-05T23:13:37.651Z,40.50
2022-12-05T23:16:26.472Z,40.63
2022-12-05T23:18:56.110Z,40.03
2022-12-05T23:21:38.086Z,36.85
2022-12-05T23:24:08.375Z,39.45
2022-12-05T23:26:38.862Z,39.63
2022-12-05T23:29:08.171Z,38.70
2022-12-05T23:31:35.597Z,38.13
2022-12-05T23:34:04.243Z,39.53
2022-12-05T23:36:33.369Z,41.47
2022-12-05T23:39:01.302Z,37.55
2022-12-05T23:41:29.706Z,41.78
2022-12-05T23:43:59.690Z,37.00
2022-12-05T23:48:55.950Z,39.20
2022-12-05T23:51:29.634Z,33.70
2022-12-05T23:54:01.377Z,37.83
2022-12-05T23:56:31.407Z,40.75
2022-12-05T23:58:59.883Z,39.72
